createdAt,value
2022-10-30T00:00:42.659Z,14.43
2022-10-30T00:03:13.446Z,19.83
2022-10-30T00:05:58.087Z,13.38
2022-10-30T00:08:24.667Z,16.35
2022-10-30T00:10:51.320Z,20.02
2022-10-30T00:13:18.250Z,16.20
2022-10-30T00:15:51.282Z,19.35
2022-10-30T00:18:17.992Z,15.80
2022-10-30T00:20:44.576Z,16.98
2022-10-30T00:23:11.211Z,14.02
2022-10-30T00:25:37.822Z,12.68
2022-10-30T00:28:07.408Z,17.13
2022-10-30T00:30:34.204Z,14.27
2022-10-30T00:33:01.232Z,13.07
2022-10-30T00:35:28.190Z,17.70
2022-10-30T00:37:55.016Z,18.52
2022-10-30T00:40:21.951Z,17.80
2022-10-30T00:42:48.611Z,16.42
2022-10-30T00:45:15.992Z,14.43
2022-10-30T00:47:46.754Z,11.52
2022-10-30T00:50:29.765Z,18.45
2022-10-30T00:53:02.227Z,16.83
2022-10-30T00:55:42.260Z,13.50
2022-10-30T00:58:10.348Z,18.92
2022-10-30T01:00:37.033Z,13.07
2022-10-30T01:03:03.659Z,15.23
2022-10-30T01:05:30.360Z,20.05
2022-10-30T01:07:57.269Z,15.52
2022-10-30T01:10:24.051Z,16.45
2022-10-30T01:12:50.818Z,15.88
2022-10-30T01:15:17.470Z,13.48
2022-10-30T01:18:11.856Z,20.80
2022-10-30T01:24:01.856Z,19.17
2022-10-30T01:26:49.606Z,16.52
2022-10-30T01:29:41.587Z,18.75
2022-10-30T01:32:22.977Z,18.90
2022-10-30T01:34:59.557Z,17.20
2022-10-30T01:37:36.773Z,18.67
2022-10-30T01:40:10.504Z,16.70
2022-10-30T01:42:57.580Z,17.38
2022-10-30T01:45:43.038Z,14.88
2022-10-30T01:48:30.608Z,19.92
2022-10-30T01:51:16.679Z,20.52
2022-10-30T01:54:08.480Z,17.60
2022-10-30T01:56:40.064Z,16.48
2022-10-30T01:59:17.841Z,15.93
2022-10-30T02:01:44.556Z,15.80
2022-10-30T02:04:12.061Z,15.05
2022-10-30T02:06:38.791Z,17.55
2022-10-30T02:09:05.528Z,14.00
2022-10-30T02:11:32.675Z,15.43
2022-10-30T02:13:59.307Z,13.57
2022-10-30T02:16:25.983Z,20.75
2022-10-30T02:18:52.553Z,17.55
2022-10-30T02:21:19.175Z,15.98
2022-10-30T02:23:45.744Z,12.15
2022-10-30T02:26:12.325Z,17.67
2022-10-30T02:28:38.936Z,20.60
2022-10-30T02:31:05.639Z,16.35
2022-10-30T02:33:32.221Z,20.10
2022-10-30T02:35:58.791Z,15.00
2022-10-30T02:38:25.343Z,17.80
2022-10-30T02:40:51.956Z,16.48
2022-10-30T02:43:18.544Z,19.05
2022-10-30T02:45:49.738Z,14.57
2022-10-30T02:48:16.329Z,17.98
2022-10-30T02:50:42.931Z,13.73
2022-10-30T02:53:09.527Z,16.30
2022-10-30T02:55:36.161Z,16.30
2022-10-30T02:58:02.787Z,13.05
2022-10-30T03:00:29.380Z,18.58
2022-10-30T03:02:56.608Z,18.98
2022-10-30T03:05:23.383Z,15.73
2022-10-30T03:07:50.015Z,20.52
2022-10-30T03:10:17.077Z,14.13
2022-10-30T03:12:43.825Z,18.70
2022-10-30T03:15:10.627Z,17.33
2022-10-30T03:17:37.250Z,18.17
2022-10-30T03:20:04.031Z,21.70
2022-10-30T03:22:30.635Z,22.50
2022-10-30T03:24:57.214Z,17.33
2022-10-30T03:27:23.815Z,27.80
2022-10-30T03:29:50.390Z,19.45
2022-10-30T03:32:16.993Z,20.63
2022-10-30T03:34:43.658Z,20.80
2022-10-30T03:37:10.231Z,23.88
2022-10-30T03:39:36.806Z,18.48
2022-10-30T03:42:03.392Z,20.00
2022-10-30T03:44:29.993Z,19.70
2022-10-30T03:46:56.694Z,24.30
2022-10-30T03:49:23.346Z,19.92
2022-10-30T03:51:49.921Z,21.38
2022-10-30T03:54:16.486Z,20.85
2022-10-30T03:56:44.761Z,20.83
2022-10-30T03:59:11.390Z,19.27
2022-10-30T04:01:38.474Z,19.80
2022-10-30T04:04:05.278Z,20.05
2022-10-30T04:06:31.888Z,23.25
2022-10-30T04:08:58.588Z,17.10
2022-10-30T04:11:25.246Z,23.83
2022-10-30T04:13:51.974Z,18.13
2022-10-30T04:16:18.551Z,17.55
2022-10-30T04:18:46.199Z,19.17
2022-10-30T04:21:12.792Z,21.08
2022-10-30T04:23:39.423Z,15.55
2022-10-30T04:26:06.051Z,20.38
2022-10-30T04:28:32.633Z,21.15
2022-10-30T04:30:59.292Z,24.55
2022-10-30T04:33:25.921Z,21.75
2022-10-30T04:35:52.476Z,18.42
2022-10-30T04:38:19.059Z,14.70
2022-10-30T04:40:45.769Z,20.02
2022-10-30T04:43:12.503Z,18.17
2022-10-30T04:45:39.353Z,21.08
2022-10-30T04:48:13.137Z,21.42
2022-10-30T04:50:39.704Z,21.23
2022-10-30T04:53:07.981Z,18.55
2022-10-30T04:55:34.567Z,17.75
2022-10-30T04:58:01.822Z,21.33
2022-10-30T05:00:28.751Z,23.73
2022-10-30T05:02:55.336Z,23.63
2022-10-30T05:05:21.914Z,21.88
2022-10-30T05:07:48.474Z,15.32
2022-10-30T05:10:15.225Z,22.60
2022-10-30T05:12:42.888Z,21.73
2022-10-30T05:15:10.153Z,22.10
2022-10-30T05:17:37.013Z,24.75
2022-10-30T05:20:04.438Z,26.40
2022-10-30T05:22:31.040Z,27.25
2022-10-30T05:24:57.639Z,25.65
2022-10-30T05:27:24.264Z,20.48
2022-10-30T05:29:50.843Z,23.50
2022-10-30T05:32:20.153Z,22.95
2022-10-30T05:34:46.720Z,21.85
2022-10-30T05:37:13.304Z,22.58
2022-10-30T05:39:39.881Z,21.00
2022-10-30T05:42:08.619Z,25.52
2022-10-30T05:45:00.786Z,22.20
2022-10-30T05:47:26.073Z,23.83
2022-10-30T05:49:52.643Z,27.10
2022-10-30T05:52:19.299Z,24.60
2022-10-30T05:54:45.908Z,20.88
2022-10-30T05:57:12.518Z,22.30
2022-10-30T05:59:39.102Z,25.42
2022-10-30T06:02:05.715Z,21.58
2022-10-30T06:04:32.340Z,27.23
2022-10-30T06:06:58.924Z,24.92
2022-10-30T06:09:25.569Z,26.90
2022-10-30T06:11:52.811Z,22.92
2022-10-30T06:14:19.400Z,27.00
2022-10-30T06:16:46.068Z,22.95
2022-10-30T06:19:17.428Z,21.95
2022-10-30T06:21:46.039Z,22.40
2022-10-30T06:24:13.019Z,25.27
2022-10-30T06:26:40.104Z,21.63
2022-10-30T06:29:06.758Z,24.35
2022-10-30T06:31:33.350Z,23.23
2022-10-30T06:34:00.262Z,24.50
2022-10-30T06:36:27.047Z,25.85
2022-10-30T06:38:53.649Z,22.55
2022-10-30T06:41:21.084Z,34.10
2022-10-30T06:43:49.951Z,22.50
2022-10-30T06:46:16.526Z,25.42
2022-10-30T06:48:43.109Z,27.95
2022-10-30T06:51:09.730Z,20.85
2022-10-30T06:53:36.731Z,22.30
2022-10-30T06:56:03.740Z,19.52
2022-10-30T06:58:30.404Z,25.67
2022-10-30T07:00:59.502Z,24.63
2022-10-30T07:03:26.127Z,19.77
2022-10-30T07:05:53.195Z,21.27
2022-10-30T07:08:20.160Z,24.30
2022-10-30T07:10:46.827Z,21.25
2022-10-30T07:13:13.667Z,19.27
2022-10-30T07:15:40.251Z,21.10
2022-10-30T07:18:06.887Z,23.10
2022-10-30T07:20:36.836Z,20.83
2022-10-30T07:23:03.573Z,25.15
2022-10-30T07:25:30.362Z,23.15
2022-10-30T07:27:57.746Z,23.17
2022-10-30T07:33:01.328Z,28.95
2022-10-30T07:35:28.740Z,20.42
2022-10-30T07:37:55.435Z,24.35
2022-10-30T07:40:22.339Z,17.77
2022-10-30T07:42:49.087Z,19.33
2022-10-30T07:45:15.786Z,18.40
2022-10-30T07:47:45.395Z,25.70
2022-10-30T07:50:12.149Z,20.88
2022-10-30T07:52:38.912Z,19.27
2022-10-30T07:55:06.011Z,18.88
2022-10-30T07:57:59.393Z,22.98
2022-10-30T08:00:26.126Z,21.23
2022-10-30T08:02:55.657Z,21.48
2022-10-30T08:05:27.054Z,20.10
2022-10-30T08:07:57.085Z,20.45
2022-10-30T08:10:23.900Z,20.92
2022-10-30T08:12:50.507Z,21.25
2022-10-30T08:15:17.148Z,19.50
2022-10-30T08:17:48.045Z,17.77
2022-10-30T08:20:15.729Z,21.75
2022-10-30T08:22:49.739Z,22.00
2022-10-30T08:25:17.202Z,21.58
2022-10-30T08:28:03.328Z,21.20
2022-10-30T08:30:31.632Z,17.40
2022-10-30T08:33:11.407Z,16.08
2022-10-30T08:35:38.073Z,19.42
2022-10-30T08:38:04.877Z,18.55
2022-10-30T08:40:31.472Z,16.35
2022-10-30T08:42:58.154Z,23.95
2022-10-30T08:45:29.767Z,20.83
2022-10-30T08:48:01.919Z,17.85
2022-10-30T08:50:31.561Z,18.17
2022-10-30T08:53:11.741Z,18.67
2022-10-30T08:55:38.340Z,17.27
2022-10-30T08:58:04.915Z,20.38
2022-10-30T09:00:31.516Z,18.05
2022-10-30T09:02:58.534Z,18.80
2022-10-30T09:05:25.681Z,17.10
2022-10-30T09:07:57.155Z,20.50
2022-10-30T09:10:24.354Z,15.38
2022-10-30T09:13:02.571Z,19.38
2022-10-30T09:15:29.419Z,18.80
2022-10-30T09:18:00.523Z,17.02
2022-10-30T09:20:27.615Z,16.13
2022-10-30T09:22:54.916Z,15.27
2022-10-30T09:25:21.579Z,14.77
2022-10-30T09:27:48.183Z,15.85
2022-10-30T09:30:14.989Z,18.63
2022-10-30T09:32:41.677Z,19.80
2022-10-30T09:35:08.600Z,20.15
2022-10-30T09:37:38.469Z,16.35
2022-10-30T09:40:06.374Z,17.90
2022-10-30T09:42:45.765Z,18.40
2022-10-30T09:45:41.523Z,19.40
2022-10-30T09:48:42.130Z,14.93
2022-10-30T09:51:46.046Z,14.70
2022-10-30T09:54:44.918Z,17.10
2022-10-30T09:57:41.220Z,15.85
2022-10-30T10:00:35.220Z,17.08
2022-10-30T10:03:23.469Z,14.25
2022-10-30T10:06:14.415Z,14.90
2022-10-30T10:15:13.096Z,16.38
2022-10-30T10:23:31.540Z,20.10
2022-10-30T10:25:58.875Z,16.95
2022-10-30T10:28:47.983Z,16.02
2022-10-30T10:31:34.354Z,16.30
2022-10-30T10:34:22.785Z,21.48
2022-10-30T10:37:12.255Z,14.77
2022-10-30T10:40:07.498Z,13.05
2022-10-30T10:43:06.425Z,17.60
2022-10-30T10:45:48.998Z,16.67
2022-10-30T10:48:15.673Z,18.42
2022-10-30T10:50:48.968Z,16.45
2022-10-30T10:53:18.508Z,14.35
2022-10-30T10:55:46.074Z,14.02
2022-10-30T10:58:29.520Z,16.27
2022-10-30T11:00:57.016Z,15.25
2022-10-30T11:03:38.341Z,12.43
2022-10-30T11:06:24.807Z,14.73
2022-10-30T11:08:53.974Z,11.38
2022-10-30T11:11:20.558Z,15.57
2022-10-30T11:13:47.273Z,18.85
2022-10-30T11:16:35.636Z,11.63
2022-10-30T11:19:03.799Z,13.13
2022-10-30T11:21:35.436Z,13.30
2022-10-30T11:24:02.093Z,16.88
2022-10-30T11:26:30.952Z,14.23
2022-10-30T11:29:15.830Z,10.30
2022-10-30T11:31:43.017Z,14.55
2022-10-30T11:34:18.636Z,11.73
2022-10-30T11:36:45.980Z,12.15
2022-10-30T11:39:35.720Z,13.52
2022-10-30T11:42:07.089Z,14.48
2022-10-30T11:44:42.100Z,12.00
2022-10-30T11:47:09.138Z,9.25
2022-10-30T11:49:40.792Z,16.02
2022-10-30T11:52:07.839Z,13.50
2022-10-30T11:54:43.642Z,15.55
2022-10-30T11:57:38.318Z,15.45
2022-10-30T12:00:07.251Z,14.95
2022-10-30T12:02:43.901Z,13.65
2022-10-30T12:05:26.084Z,12.88
2022-10-30T12:08:15.600Z,16.48
2022-10-30T12:10:43.919Z,12.80
2022-10-30T12:13:17.884Z,12.55
2022-10-30T12:15:45.298Z,10.82
2022-10-30T12:18:23.722Z,13.77
2022-10-30T12:20:53.409Z,13.55
2022-10-30T12:23:21.861Z,12.00
2022-10-30T12:25:49.222Z,13.40
2022-10-30T12:28:20.709Z,13.77
2022-10-30T12:30:52.002Z,14.32
2022-10-30T12:33:37.456Z,9.68
2022-10-30T12:36:10.507Z,14.82
2022-10-30T12:38:45.741Z,14.18
2022-10-30T12:41:19.912Z,12.85
2022-10-30T12:44:12.662Z,15.90
2022-10-30T12:46:45.344Z,16.50
2022-10-30T12:49:17.485Z,13.25
2022-10-30T12:51:58.555Z,14.10
2022-10-30T12:54:44.960Z,13.68
2022-10-30T12:57:17.575Z,13.82
2022-10-30T13:00:00.786Z,14.23
2022-10-30T13:02:38.806Z,15.68
2022-10-30T13:05:26.649Z,15.43
2022-10-30T13:08:30.762Z,13.93
2022-10-30T13:11:16.864Z,19.10
2022-10-30T13:13:50.823Z,12.15
2022-10-30T13:16:28.234Z,17.80
2022-10-30T13:18:57.283Z,13.63
2022-10-30T13:21:47.508Z,12.05
2022-10-30T13:24:38.080Z,14.15
2022-10-30T13:27:12.913Z,9.65
2022-10-30T13:30:00.187Z,13.25
2022-10-30T13:32:33.088Z,14.23
2022-10-30T13:35:24.536Z,11.90
2022-10-30T13:38:26.062Z,8.13
2022-10-30T13:41:21.367Z,11.27
2022-10-30T13:44:24.251Z,16.95
2022-10-30T13:46:54.843Z,13.00
2022-10-30T13:49:37.412Z,9.30
2022-10-30T13:52:16.679Z,11.93
2022-10-30T13:54:57.257Z,11.90
2022-10-30T13:57:58.005Z,9.95
2022-10-30T14:00:27.306Z,9.48
2022-10-30T14:05:56.323Z,12.07
2022-10-30T14:09:16.584Z,13.38
2022-10-30T14:11:43.393Z,12.77
2022-10-30T14:14:29.688Z,10.60
2022-10-30T14:17:13.649Z,10.82
2022-10-30T14:20:08.725Z,8.95
2022-10-30T14:22:40.072Z,6.93
2022-10-30T14:25:15.523Z,6.53
2022-10-30T14:30:18.973Z,4.32
2022-10-30T14:32:51.551Z,7.30
2022-10-30T14:35:50.148Z,6.55
2022-10-30T14:38:24.369Z,7.60
2022-10-30T14:40:54.916Z,6.28
2022-10-30T14:43:33.033Z,5.68
2022-10-30T14:46:01.575Z,6.90
2022-10-30T14:48:59.522Z,6.90
2022-10-30T14:51:40.059Z,6.32
2022-10-30T14:54:20.317Z,10.57
2022-10-30T14:56:48.331Z,6.80
2022-10-30T14:59:14.929Z,7.00
2022-10-30T15:01:47.725Z,9.80
2022-10-30T15:04:26.408Z,7.70
2022-10-30T15:07:13.890Z,15.70
2022-10-30T15:10:16.475Z,8.48
2022-10-30T15:13:13.551Z,7.43
2022-10-30T15:15:40.136Z,11.68
2022-10-30T15:18:11.567Z,7.88
2022-10-30T15:20:38.464Z,8.77
2022-10-30T15:23:09.092Z,8.85
2022-10-30T15:25:52.606Z,10.02
2022-10-30T15:28:20.739Z,13.95
2022-10-30T15:31:07.131Z,11.57
2022-10-30T15:33:37.007Z,9.95
2022-10-30T15:36:15.063Z,8.23
2022-10-30T15:38:41.746Z,7.90
2022-10-30T15:41:08.467Z,10.52
2022-10-30T15:43:36.759Z,12.75
2022-10-30T15:46:08.773Z,9.63
2022-10-30T15:48:35.582Z,7.10
2022-10-30T15:51:07.264Z,8.27
2022-10-30T15:53:55.755Z,12.43
2022-10-30T15:56:28.450Z,7.32
2022-10-30T15:59:03.022Z,7.45
2022-10-30T16:01:34.232Z,13.88
2022-10-30T16:04:01.003Z,7.78
2022-10-30T16:06:29.625Z,11.07
2022-10-30T16:08:58.534Z,12.25
2022-10-30T16:11:30.531Z,10.95
2022-10-30T16:14:22.059Z,12.73
2022-10-30T16:16:51.675Z,10.68
2022-10-30T16:19:39.917Z,8.70
2022-10-30T16:22:09.856Z,11.02
2022-10-30T16:24:36.608Z,11.88
2022-10-30T16:27:04.220Z,11.85
2022-10-30T16:29:47.325Z,9.43
2022-10-30T16:32:16.066Z,12.57
2022-10-30T16:34:42.891Z,12.73
2022-10-30T16:37:17.485Z,14.35
2022-10-30T16:39:44.191Z,13.07
2022-10-30T16:42:40.102Z,9.80
2022-10-30T16:45:12.702Z,7.97
2022-10-30T16:47:40.322Z,9.90
2022-10-30T16:50:07.366Z,12.30
2022-10-30T16:52:34.536Z,16.60
2022-10-30T16:55:09.220Z,12.55
2022-10-30T16:57:37.811Z,11.27
2022-10-30T17:00:05.604Z,17.08
2022-10-30T17:02:34.036Z,10.25
2022-10-30T17:05:11.489Z,12.13
2022-10-30T17:07:38.412Z,11.40
2022-10-30T17:10:34.895Z,11.60
2022-10-30T17:13:29.978Z,9.90
2022-10-30T17:15:56.818Z,12.30
2022-10-30T17:18:28.992Z,13.07
2022-10-30T17:21:15.764Z,16.10
2022-10-30T17:23:52.113Z,13.88
2022-10-30T17:26:18.861Z,13.77
2022-10-30T17:28:46.367Z,12.38
2022-10-30T17:31:18.945Z,13.05
2022-10-30T17:33:46.477Z,11.70
2022-10-30T17:36:13.481Z,12.23
2022-10-30T17:38:40.349Z,10.18
2022-10-30T17:41:07.256Z,12.48
2022-10-30T17:43:35.620Z,11.77
2022-10-30T17:46:02.583Z,10.30
2022-10-30T17:48:32.084Z,14.50
2022-10-30T17:50:59.250Z,12.13
2022-10-30T17:53:26.695Z,13.43
2022-10-30T17:55:56.951Z,11.95
2022-10-30T17:58:23.974Z,11.05
2022-10-30T18:00:51.047Z,11.52
2022-10-30T18:03:18.053Z,9.73
2022-10-30T18:05:45.169Z,14.73
2022-10-30T18:08:12.095Z,10.07
2022-10-30T18:10:39.972Z,9.45
2022-10-30T18:13:10.334Z,11.38
2022-10-30T18:15:41.320Z,10.00
2022-10-30T18:18:08.276Z,12.32
2022-10-30T18:20:35.151Z,19.50
2022-10-30T18:23:02.490Z,19.70
2022-10-30T18:25:36.681Z,13.68
2022-10-30T18:28:03.644Z,15.50
2022-10-30T18:30:30.612Z,12.27
2022-10-30T18:32:58.049Z,9.45
2022-10-30T18:35:28.547Z,15.82
2022-10-30T18:37:55.281Z,13.40
2022-10-30T18:40:22.747Z,11.48
2022-10-30T18:42:49.597Z,10.65
2022-10-30T18:45:26.169Z,12.23
2022-10-30T18:47:53.737Z,13.35
2022-10-30T18:50:21.916Z,14.60
2022-10-30T18:52:48.775Z,15.18
2022-10-30T18:55:37.996Z,11.70
2022-10-30T18:58:05.463Z,9.70
2022-10-30T19:00:44.862Z,14.35
2022-10-30T19:03:20.630Z,16.15
2022-10-30T19:05:49.345Z,13.88
2022-10-30T19:08:16.285Z,19.23
2022-10-30T19:10:44.852Z,17.92
2022-10-30T19:13:21.685Z,20.38
2022-10-30T19:15:50.283Z,19.55
2022-10-30T19:18:17.169Z,26.25
2022-10-30T19:21:03.222Z,17.38
2022-10-30T19:23:30.559Z,20.08
2022-10-30T19:25:57.493Z,29.98
2022-10-30T19:28:24.131Z,38.50
2022-10-30T19:30:50.887Z,25.23
2022-10-30T19:33:21.187Z,33.47
2022-10-30T19:35:55.083Z,16.40
2022-10-30T19:38:24.571Z,13.45
2022-10-30T19:40:51.389Z,13.13
2022-10-30T19:43:18.066Z,12.75
2022-10-30T19:45:44.718Z,13.18
2022-10-30T19:48:24.732Z,11.68
2022-10-30T19:50:56.207Z,15.20
2022-10-30T19:53:22.975Z,10.48
2022-10-30T19:55:49.633Z,15.95
2022-10-30T19:58:16.945Z,16.42
2022-10-30T20:00:45.031Z,15.68
2022-10-30T20:03:13.239Z,16.15
2022-10-30T20:05:44.305Z,15.35
2022-10-30T20:08:15.322Z,13.02
2022-10-30T20:10:49.414Z,14.00
2022-10-30T20:13:16.083Z,12.40
2022-10-30T20:15:42.773Z,12.93
2022-10-30T20:18:20.230Z,10.05
2022-10-30T20:20:51.186Z,15.45
2022-10-30T20:23:18.119Z,13.85
2022-10-30T20:25:44.911Z,12.70
2022-10-30T20:28:33.108Z,12.07
2022-10-30T20:30:59.994Z,10.55
2022-10-30T20:33:26.699Z,12.82
2022-10-30T20:35:53.840Z,12.40
2022-10-30T20:38:28.149Z,14.77
2022-10-30T20:40:55.334Z,10.00
2022-10-30T20:43:25.197Z,9.18
2022-10-30T20:45:51.885Z,9.30
2022-10-30T20:48:18.622Z,11.52
2022-10-30T20:50:50.381Z,11.32
2022-10-30T20:53:17.458Z,15.77
2022-10-30T20:55:44.844Z,13.98
2022-10-30T20:58:11.734Z,9.93
2022-10-30T21:00:38.477Z,8.43
2022-10-30T21:03:05.359Z,13.75
2022-10-30T21:05:43.709Z,15.23
2022-10-30T21:08:11.525Z,9.00
2022-10-30T21:10:38.742Z,9.60
2022-10-30T21:13:08.667Z,7.95
2022-10-30T21:15:41.627Z,7.70
2022-10-30T21:18:08.916Z,11.45
2022-10-30T21:20:36.430Z,9.48
2022-10-30T21:23:04.718Z,8.00
2022-10-30T21:25:31.423Z,10.07
2022-10-30T21:27:58.132Z,17.60
2022-10-30T21:30:24.815Z,9.75
2022-10-30T21:32:51.499Z,11.20
2022-10-30T21:35:18.286Z,9.15
2022-10-30T21:37:44.891Z,9.48
2022-10-30T21:40:12.248Z,9.23
2022-10-30T21:42:38.952Z,8.55
2022-10-30T21:45:06.494Z,9.75
2022-10-30T21:47:33.186Z,11.63
2022-10-30T21:50:04.837Z,10.15
2022-10-30T21:52:37.381Z,9.65
2022-10-30T21:57:39.388Z,11.25
2022-10-30T22:00:07.567Z,9.30
2022-10-30T22:02:34.474Z,7.50
2022-10-30T22:05:01.183Z,11.18
2022-10-30T22:07:30.504Z,12.00
2022-10-30T22:09:57.189Z,10.10
2022-10-30T22:12:23.824Z,9.25
2022-10-30T22:14:50.411Z,7.10
2022-10-30T22:17:17.058Z,10.00
2022-10-30T22:19:43.614Z,7.15
2022-10-30T22:22:10.246Z,8.98
2022-10-30T22:24:36.820Z,7.40
2022-10-30T22:27:03.542Z,6.97
2022-10-30T22:29:30.171Z,9.70
2022-10-30T22:31:56.738Z,10.93
2022-10-30T22:34:23.336Z,12.80
2022-10-30T22:36:49.927Z,9.57
2022-10-30T22:39:16.501Z,11.90
2022-10-30T22:41:43.122Z,7.68
2022-10-30T22:44:13.980Z,9.32
2022-10-30T22:46:40.693Z,12.02
2022-10-30T22:49:07.379Z,11.02
2022-10-30T22:51:34.910Z,11.93
2022-10-30T22:54:02.607Z,9.30
2022-10-30T22:56:31.130Z,8.80
2022-10-30T22:59:11.682Z,11.52
2022-10-30T23:01:38.674Z,9.80
2022-10-30T23:04:05.969Z,9.07
2022-10-30T23:06:33.413Z,10.77
2022-10-30T23:09:01.433Z,10.65
2022-10-30T23:11:28.307Z,14.23
2022-10-30T23:13:55.216Z,8.93
2022-10-30T23:16:23.167Z,8.98
2022-10-30T23:18:50.225Z,11.73
2022-10-30T23:21:19.219Z,10.18
2022-10-30T23:23:45.851Z,9.02
2022-10-30T23:26:15.167Z,10.50
2022-10-30T23:28:41.896Z,10.27
2022-10-30T23:31:16.295Z,11.88
2022-10-30T23:33:42.888Z,11.30
2022-10-30T23:36:09.646Z,11.00
2022-10-30T23:38:36.273Z,11.60
2022-10-30T23:41:02.857Z,10.77
2022-10-30T23:43:29.438Z,8.82
2022-10-30T23:45:56.057Z,14.27
2022-10-30T23:48:22.671Z,10.65
2022-10-30T23:50:49.244Z,11.60
2022-10-30T23:53:15.898Z,12.35
2022-10-30T23:55:52.723Z,12.20
2022-10-30T23:58:19.921Z,9.13
